METAR Formatted Surface Weather Observation
Issued by NWS

Home | Current Version | Previous Version | Text Only | Print | Product List | Glossary On
Versions: 1 2 3 4 5 6 7 8 9 10 11 12 13 14 15 16 17 18 19 20 21
000
SAUS43 KMQT 292256
MTRP59
METAR KP59 292251Z AUTO 35010KT 21/15 A2998 RMK AO1 SLP147 T02110150



USA.gov is the U.S. government's official web portal to all federal, state and local government web resources and services.